Time;durP1;ratioP1;P1;durP2;ratioP2;P2;SDS_P1;SDS_P2;PMS_P1;PMS_P2;Temp;Humidity;BMP_temperature;BMP_pressure;BME280_temperature;BME280_humidity;BME280_pressure;Samples;Min_cycle;Max_cycle;Signal;HPM_P1;HPM_P2
2020/12/20 00:02:17;;;;;;;;;;;;;;;19.28;40.10;102154.53;5098818;28;794;-51
2020/12/20 00:04:42;;;;;;;;;;;;;;;20.29;38.11;102148.59;5098274;28;823;-47
2020/12/20 00:07:08;;;;;;;;;;;;;;;20.51;37.64;102159.50;5077806;28;985;-48
2020/12/20 00:09:33;;;;;;;;;;;;;;;20.19;38.48;102163.16;5078308;28;704;-49
2020/12/20 00:11:58;;;;;;;;;;;;;;;19.94;38.74;102164.59;5077870;28;748;-51
2020/12/20 00:14:27;;;;;;;;;;;;;;;19.34;39.87;102163.69;5077851;28;743;-50
2020/12/20 00:17:05;;;;;;;;;;;;;;;20.15;38.44;102164.78;5077885;28;787;-50
2020/12/20 00:19:31;;;;;;;;;;;;;;;20.33;37.82;102163.53;5077857;28;1209;-50
2020/12/20 00:22:00;;;;;;;;;;;;;;;20.01;38.61;102175.44;5094511;28;1971;-51
2020/12/20 00:24:25;;;;;;;;;;;;;;;20.15;38.52;102173.88;5097872;28;767;-52
2020/12/20 00:26:51;;;;;;;;;;;;;;;19.49;39.59;102171.31;5097874;28;934;-49
2020/12/20 00:29:16;;;;;;;;;;;;;;;20.32;38.13;102173.72;5097268;28;842;-53
2020/12/20 00:31:41;;;;;;;;;;;;;;;20.60;37.67;102180.00;5097722;28;755;-50
2020/12/20 00:34:07;;;;;;;;;;;;;;;20.10;38.39;102160.03;5097982;28;759;-49
2020/12/20 00:36:32;;;;;;;;;;;;;;;20.06;38.56;102163.59;5097547;28;996;-47
2020/12/20 00:38:58;;;;;;;;;;;;;;;19.82;38.93;102166.69;5097425;28;838;-52
2020/12/20 00:41:23;;;;;;;;;;;;;;;19.62;39.42;102165.38;5098383;28;1905;-53
2020/12/20 00:43:49;;;;;;;;;;;;;;;20.42;37.74;102155.56;5102453;28;1129;-54
2020/12/20 00:46:14;;;;;;;;;;;;;;;20.43;37.60;102160.00;5117836;28;759;-52
2020/12/20 00:48:40;;;;;;;;;;;;;;;20.04;38.44;102158.34;5118039;28;790;-52
2020/12/20 00:51:06;;;;;;;;;;;;;;;19.97;38.83;102157.72;5105952;28;948;-52
2020/12/20 00:53:32;;;;;;;;;;;;;;;19.30;40.26;102157.03;5096063;28;1339;-51
2020/12/20 00:55:57;;;;;;;;;;;;;;;20.08;38.75;102156.72;5096196;28;2195;-52
2020/12/20 00:58:23;;;;;;;;;;;;;;;20.47;37.53;102150.09;5097231;28;779;-50
2020/12/20 01:00:48;;;;;;;;;;;;;;;20.26;38.05;102149.09;5095244;28;1906;-53
2020/12/20 01:03:16;;;;;;;;;;;;;;;20.05;38.66;102156.41;5096410;28;1121;-50
2020/12/20 01:05:42;;;;;;;;;;;;;;;19.55;39.37;102139.09;5095847;28;1133;-50
2020/12/20 01:08:09;;;;;;;;;;;;;;;19.36;40.09;102138.63;5097078;28;814;-50
2020/12/20 01:10:38;;;;;;;;;;;;;;;20.20;38.25;102141.88;5097224;28;940;-53
2020/12/20 01:13:03;;;;;;;;;;;;;;;20.60;37.20;102126.69;5095435;28;1097;-55
2020/12/20 01:15:33;;;;;;;;;;;;;;;20.16;38.11;102133.28;5095746;28;1197;-53
2020/12/20 01:18:00;;;;;;;;;;;;;;;20.09;38.46;102130.78;5096111;28;1149;-52
2020/12/20 01:20:25;;;;;;;;;;;;;;;19.53;39.57;102138.50;5096403;28;1991;-54
2020/12/20 01:22:51;;;;;;;;;;;;;;;20.48;37.50;102137.91;5095769;28;1140;-53
2020/12/20 01:25:17;;;;;;;;;;;;;;;20.47;37.65;102136.28;5095955;28;1150;-55
2020/12/20 01:27:52;;;;;;;;;;;;;;;20.24;38.26;102134.72;5095859;28;1137;-53
2020/12/20 01:30:23;;;;;;;;;;;;;;;19.76;38.92;102132.66;5096270;28;1335;-54
2020/12/20 01:32:49;;;;;;;;;;;;;;;19.38;40.09;102134.50;5095474;28;1235;-50
2020/12/20 01:35:14;;;;;;;;;;;;;;;20.39;37.95;102139.53;5106655;28;1223;-54
2020/12/20 01:37:40;;;;;;;;;;;;;;;20.40;37.72;102133.75;5075561;28;1193;-54
2020/12/20 01:40:10;;;;;;;;;;;;;;;20.22;38.07;102128.66;5087298;28;1973;-54
2020/12/20 01:42:35;;;;;;;;;;;;;;;19.86;38.91;102126.44;5096370;28;767;-55
2020/12/20 01:45:03;;;;;;;;;;;;;;;19.20;40.14;102130.16;5095547;28;1148;-55
2020/12/20 01:47:33;;;;;;;;;;;;;;;20.26;38.23;102129.75;5095315;28;1517;-53
2020/12/20 01:50:06;;;;;;;;;;;;;;;20.59;37.24;102122.25;5094935;28;1118;-55
2020/12/20 01:52:32;;;;;;;;;;;;;;;20.22;38.13;102123.13;5095244;28;1397;-53
2020/12/20 01:55:00;;;;;;;;;;;;;;;20.02;38.53;102116.38;5078665;28;1252;-55
2020/12/20 01:57:31;;;;;;;;;;;;;;;19.43;39.78;102118.03;5079146;28;1583;-53
2020/12/20 02:00:08;;;;;;;;;;;;;;;19.92;38.71;102113.50;5095734;28;1905;-54
2020/12/20 02:03:03;;;;;;;;;;;;;;;20.72;36.87;102113.50;5095964;28;1137;-54
2020/12/20 02:05:29;;;;;;;;;;;;;;;20.25;37.87;102117.91;5074264;28;1435;-54
2020/12/20 02:07:54;;;;;;;;;;;;;;;20.07;38.14;102121.91;5075116;28;1298;-53
2020/12/20 02:10:20;;;;;;;;;;;;;;;19.44;39.82;102114.16;5094930;28;1332;-54
2020/12/20 02:12:47;;;;;;;;;;;;;;;19.87;38.79;102113.47;5095183;28;1048;-53
2020/12/20 02:15:20;;;;;;;;;;;;;;;20.64;37.17;102108.47;5095148;28;1113;-55
2020/12/20 02:17:47;;;;;;;;;;;;;;;20.16;38.27;102106.53;5095114;28;1164;-51
2020/12/20 02:20:13;;;;;;;;;;;;;;;20.13;38.11;102107.06;5094623;28;1970;-54
2020/12/20 02:23:10;;;;;;;;;;;;;;;19.62;39.18;102098.31;5073340;28;1275;-54
2020/12/20 02:25:44;;;;;;;;;;;;;;;20.12;38.48;102102.63;5099193;28;1223;-54
2020/12/20 02:28:27;;;;;;;;;;;;;;;20.59;37.46;102103.72;5098990;28;1072;-54
2020/12/20 02:31:07;;;;;;;;;;;;;;;20.08;38.34;102098.72;5099136;28;1101;-56
2020/12/20 02:33:32;;;;;;;;;;;;;;;19.97;38.53;102095.06;5100043;28;786;-55
2020/12/20 02:35:58;;;;;;;;;;;;;;;19.72;39.00;102098.41;5099981;28;973;-54
2020/12/20 02:38:23;;;;;;;;;;;;;;;20.38;37.73;102097.25;5099000;28;1290;-50
2020/12/20 02:41:09;;;;;;;;;;;;;;;20.46;37.41;102093.16;5099695;28;1909;-52
2020/12/20 02:43:34;;;;;;;;;;;;;;;20.10;38.22;102092.94;5101410;28;1145;-51
2020/12/20 02:46:00;;;;;;;;;;;;;;;19.85;38.72;102099.09;5119365;28;1259;-53
2020/12/20 02:48:26;;;;;;;;;;;;;;;19.32;39.82;102099.69;5118906;28;1358;-53
2020/12/20 02:50:52;;;;;;;;;;;;;;;19.80;38.99;102095.19;5109180;28;1220;-53
2020/12/20 02:53:18;;;;;;;;;;;;;;;20.54;37.35;102080.75;5098891;28;1152;-53
2020/12/20 02:55:43;;;;;;;;;;;;;;;20.15;37.92;102082.75;5098602;28;1215;-54
2020/12/20 02:58:12;;;;;;;;;;;;;;;20.05;38.41;102079.09;5098497;28;1574;-54
2020/12/20 03:00:52;;;;;;;;;;;;;;;19.55;39.29;102086.69;5099592;28;1980;-52
2020/12/20 03:03:19;;;;;;;;;;;;;;;19.79;38.90;102082.47;5098273;28;1921;-54
2020/12/20 03:05:47;;;;;;;;;;;;;;;20.56;37.44;102082.16;5098538;28;1232;-52
2020/12/20 03:08:13;;;;;;;;;;;;;;;20.35;37.61;102084.81;5098811;28;1227;-54
2020/12/20 03:10:39;;;;;;;;;;;;;;;20.16;38.08;102083.56;5081401;28;1246;-54
2020/12/20 03:13:05;;;;;;;;;;;;;;;19.81;38.81;102084.97;5098234;28;1113;-49
2020/12/20 03:15:34;;;;;;;;;;;;;;;19.36;39.71;102084.28;5098170;28;1379;-53
2020/12/20 03:18:00;;;;;;;;;;;;;;;19.95;38.83;102077.94;5098134;28;1268;-52
2020/12/20 03:20:26;;;;;;;;;;;;;;;20.75;37.00;102081.69;5097924;28;1972;-52
2020/12/20 03:22:52;;;;;;;;;;;;;;;20.38;37.73;102083.44;5098292;28;1149;-50
2020/12/20 03:25:36;;;;;;;;;;;;;;;20.11;38.15;102083.56;5098882;28;644;-53
2020/12/20 03:28:24;;;;;;;;;;;;;;;19.73;38.97;102091.81;5098520;28;933;-53
2020/12/20 03:31:10;;;;;;;;;;;;;;;19.65;39.12;102086.75;5098052;28;1299;-54
2020/12/20 03:33:56;;;;;;;;;;;;;;;20.10;38.48;102088.22;5091377;28;1065;-55
2020/12/20 03:36:45;;;;;;;;;;;;;;;20.80;36.95;102078.97;5097222;28;1157;-56
2020/12/20 03:39:13;;;;;;;;;;;;;;;20.21;37.92;102082.78;5097458;28;1388;-55
2020/12/20 03:41:39;;;;;;;;;;;;;;;20.28;37.80;102083.38;5097805;28;1914;-52
2020/12/20 03:44:07;;;;;;;;;;;;;;;19.72;38.74;102081.84;5105322;28;1181;-56
2020/12/20 03:46:33;;;;;;;;;;;;;;;19.56;39.32;102077.28;5118269;28;1265;-54
2020/12/20 03:48:58;;;;;;;;;;;;;;;20.46;37.44;102074.66;5118008;28;1156;-50
2020/12/20 03:51:24;;;;;;;;;;;;;;;20.58;37.17;102070.81;5103424;28;1192;-53
2020/12/20 03:53:55;;;;;;;;;;;;;;;20.23;37.74;102077.81;5097580;28;1093;-49
2020/12/20 03:56:21;;;;;;;;;;;;;;;20.02;38.25;102077.72;5097430;28;1188;-54
2020/12/20 03:58:53;;;;;;;;;;;;;;;19.33;39.77;102079.28;5097316;28;1357;-49
2020/12/20 04:01:21;;;;;;;;;;;;;;;20.27;37.98;102082.56;5097074;28;1918;-53
2020/12/20 04:03:46;;;;;;;;;;;;;;;20.83;36.54;102090.34;5097456;28;1105;-56
2020/12/20 04:06:13;;;;;;;;;;;;;;;20.25;37.81;102092.22;5096953;28;1319;-53
2020/12/20 04:08:39;;;;;;;;;;;;;;;19.82;38.59;102095.78;5097297;28;1531;-52
2020/12/20 04:11:16;;;;;;;;;;;;;;;19.36;39.67;102100.00;5096930;28;2055;-51
2020/12/20 04:13:41;;;;;;;;;;;;;;;20.37;37.89;102109.41;5096656;28;1259;-50
2020/12/20 04:16:10;;;;;;;;;;;;;;;21.03;36.47;102105.31;5097621;28;1320;-50
2020/12/20 04:18:37;;;;;;;;;;;;;;;21.36;35.83;102097.66;5096984;28;1153;-47
2020/12/20 04:21:03;;;;;;;;;;;;;;;20.76;36.78;102099.97;5096459;28;1913;-56
2020/12/20 04:23:30;;;;;;;;;;;;;;;20.47;37.45;102101.19;5096999;28;1394;-49
2020/12/20 04:26:18;;;;;;;;;;;;;;;19.73;38.99;102105.59;5097614;28;1188;-51
2020/12/20 04:29:04;;;;;;;;;;;;;;;19.50;39.78;102106.75;5097667;28;1127;-51
2020/12/20 04:31:36;;;;;;;;;;;;;;;20.44;37.81;102111.91;5097033;28;1384;-54
2020/12/20 04:34:26;;;;;;;;;;;;;;;20.74;36.74;102102.19;5096483;28;1283;-48
2020/12/20 04:36:51;;;;;;;;;;;;;;;20.47;37.68;102106.72;5096073;28;2151;-51
2020/12/20 04:39:38;;;;;;;;;;;;;;;20.01;38.57;102109.16;5090249;28;1274;-54
2020/12/20 04:42:04;;;;;;;;;;;;;;;19.52;39.63;102110.09;5096515;28;1902;-49
2020/12/20 04:44:31;;;;;;;;;;;;;;;20.22;37.96;102123.13;5106818;28;1890;-47
2020/12/20 04:47:03;;;;;;;;;;;;;;;20.73;36.85;102112.38;5099219;28;1272;-53
2020/12/20 04:49:35;;;;;;;;;;;;;;;20.39;37.55;102117.44;5116858;28;1271;-51
2020/12/20 04:52:06;;;;;;;;;;;;;;;19.98;38.52;102123.50;5080169;28;1916;-53
2020/12/20 04:54:34;;;;;;;;;;;;;;;19.50;39.60;102131.59;5079704;28;1141;-53
2020/12/20 04:57:02;;;;;;;;;;;;;;;20.17;38.25;102126.66;5079762;28;1204;-58
2020/12/20 04:59:33;;;;;;;;;;;;;;;20.92;36.45;102123.00;5096472;28;1303;-57
2020/12/20 05:02:01;;;;;;;;;;;;;;;20.35;37.72;102139.22;5079529;28;1968;-57
2020/12/20 05:04:29;;;;;;;;;;;;;;;20.28;37.66;102133.09;5096148;28;771;-60
2020/12/20 05:06:54;;;;;;;;;;;;;;;19.68;39.13;102141.41;5095911;28;1153;-51
2020/12/20 05:09:45;;;;;;;;;;;;;;;19.24;39.69;102144.28;5095878;28;1425;-50
2020/12/20 05:12:22;;;;;;;;;;;;;;;19.96;38.35;102143.09;5095798;28;1132;-58
2020/12/20 05:14:47;;;;;;;;;;;;;;;20.76;36.46;102139.50;5096084;28;1274;-57
2020/12/20 05:17:22;;;;;;;;;;;;;;;20.46;36.91;102152.00;5095880;28;1434;-54
2020/12/20 05:20:11;;;;;;;;;;;;;;;20.38;37.41;102155.25;5094738;28;1909;-54
2020/12/20 05:22:39;;;;;;;;;;;;;;;19.82;38.37;102152.91;5095873;28;1102;-50
2020/12/20 05:25:16;;;;;;;;;;;;;;;19.33;39.65;102159.28;5079727;28;1322;-53
2020/12/20 05:27:45;;;;;;;;;;;;;;;20.34;37.66;102159.66;5096027;28;1105;-52
2020/12/20 05:30:20;;;;;;;;;;;;;;;20.62;36.84;102161.25;5095439;28;1056;-49
2020/12/20 05:33:04;;;;;;;;;;;;;;;20.37;37.16;102159.16;5096644;28;629;-48
2020/12/20 05:35:31;;;;;;;;;;;;;;;20.00;38.11;102165.47;5095124;28;1431;-48
2020/12/20 05:37:57;;;;;;;;;;;;;;;19.48;39.32;102159.44;5095776;28;1264;-47
2020/12/20 05:40:34;;;;;;;;;;;;;;;20.13;37.82;102169.72;5095290;28;1976;-45
2020/12/20 05:43:01;;;;;;;;;;;;;;;20.78;36.43;102164.13;5095468;28;1291;-48
2020/12/20 05:45:28;;;;;;;;;;;;;;;20.37;37.51;102164.66;5114020;28;1229;-48
2020/12/20 05:48:12;;;;;;;;;;;;;;;19.94;38.04;102170.13;5115873;28;1132;-49
2020/12/20 05:50:38;;;;;;;;;;;;;;;19.42;39.38;102166.00;5107407;28;1903;-45
2020/12/20 05:53:04;;;;;;;;;;;;;;;20.11;37.97;102175.50;5095237;28;1390;-48
2020/12/20 05:55:36;;;;;;;;;;;;;;;20.81;36.55;102169.94;5096520;28;733;-48
2020/12/20 05:58:11;;;;;;;;;;;;;;;20.22;37.56;102183.91;5095482;28;882;-52
2020/12/20 06:00:36;;;;;;;;;;;;;;;20.25;37.74;102183.34;5096490;28;1971;-50
2020/12/20 06:03:02;;;;;;;;;;;;;;;19.85;38.58;102190.19;5096231;28;747;-45
2020/12/20 06:05:28;;;;;;;;;;;;;;;19.40;39.37;102190.25;5095191;28;969;-46
2020/12/20 06:07:54;;;;;;;;;;;;;;;20.18;38.03;102195.44;5095181;28;847;-46
2020/12/20 06:10:19;;;;;;;;;;;;;;;20.88;36.48;102185.44;5094638;28;883;-46
2020/12/20 06:12:49;;;;;;;;;;;;;;;20.32;37.57;102197.78;5079029;28;1296;-49
2020/12/20 06:15:14;;;;;;;;;;;;;;;20.05;38.22;102195.91;5094945;28;1240;-46
2020/12/20 06:17:43;;;;;;;;;;;;;;;19.58;38.99;102196.50;5093767;28;942;-55
2020/12/20 06:20:11;;;;;;;;;;;;;;;20.02;38.24;102190.91;5094015;28;1906;-47
2020/12/20 06:22:36;;;;;;;;;;;;;;;20.78;36.74;102197.28;5077779;28;1131;-46
2020/12/20 06:25:03;;;;;;;;;;;;;;;20.25;37.87;102199.94;5095775;28;843;-46
2020/12/20 06:27:29;;;;;;;;;;;;;;;20.31;37.81;102204.38;5095949;28;794;-57
2020/12/20 06:29:56;;;;;;;;;;;;;;;19.60;38.88;102205.34;5089812;28;1105;-52
2020/12/20 06:32:27;;;;;;;;;;;;;;;19.59;39.27;102211.97;5093077;28;1009;-50
2020/12/20 06:34:52;;;;;;;;;;;;;;;20.48;37.51;102210.63;5095636;28;930;-55
2020/12/20 06:37:18;;;;;;;;;;;;;;;20.13;37.84;102209.22;5094727;28;823;-58
2020/12/20 06:39:43;;;;;;;;;;;;;;;20.09;37.95;102212.75;5095915;28;735;-47
2020/12/20 06:42:09;;;;;;;;;;;;;;;19.82;38.61;102211.72;5095896;28;1969;-53
2020/12/20 06:44:34;;;;;;;;;;;;;;;19.24;39.70;102214.06;5106699;28;1074;-50
2020/12/20 06:47:00;;;;;;;;;;;;;;;20.12;37.92;102215.84;5116054;28;887;-49
2020/12/20 06:49:40;;;;;;;;;;;;;;;20.51;37.08;102210.06;5116666;28;755;-52
2020/12/20 06:52:18;;;;;;;;;;;;;;;20.12;38.05;102213.09;5095801;28;969;-54
2020/12/20 06:55:02;;;;;;;;;;;;;;;19.80;38.57;102219.41;5095644;28;731;-49
2020/12/20 06:57:28;;;;;;;;;;;;;;;19.20;40.06;102217.59;5095763;28;831;-49
2020/12/20 06:59:53;;;;;;;;;;;;;;;20.18;38.00;102217.53;5095822;28;1977;-52
2020/12/20 07:02:37;;;;;;;;;;;;;;;20.25;37.68;102227.56;5095940;28;886;-54
2020/12/20 07:05:03;;;;;;;;;;;;;;;19.89;38.74;102232.75;5095575;28;1008;-59
2020/12/20 07:07:28;;;;;;;;;;;;;;;19.70;39.11;102233.06;5095579;28;850;-59
2020/12/20 07:09:53;;;;;;;;;;;;;;;19.34;40.05;102240.94;5097726;28;790;-56
2020/12/20 07:12:31;;;;;;;;;;;;;;;20.34;37.64;102237.84;5099456;28;750;-59
2020/12/20 07:14:57;;;;;;;;;;;;;;;20.71;36.68;102236.22;5099242;28;807;-61
2020/12/20 07:17:23;;;;;;;;;;;;;;;20.22;37.72;102230.84;5097962;28;1145;-60
2020/12/20 07:20:07;;;;;;;;;;;;;;;19.99;38.48;102235.59;5098873;28;1123;-56
2020/12/20 07:22:33;;;;;;;;;;;;;;;19.19;39.81;102240.72;5099075;28;858;-60
2020/12/20 07:24:58;;;;;;;;;;;;;;;20.29;37.72;102248.03;5099435;28;761;-61
2020/12/20 07:27:23;;;;;;;;;;;;;;;20.48;37.16;102249.28;5099075;28;811;-53
2020/12/20 07:29:49;;;;;;;;;;;;;;;20.23;37.96;102241.63;5097721;28;878;-58
2020/12/20 07:32:14;;;;;;;;;;;;;;;19.98;38.48;102253.28;5099411;28;822;-54
2020/12/20 07:34:40;;;;;;;;;;;;;;;19.41;39.35;102247.09;5099057;28;818;-50
2020/12/20 07:37:05;;;;;;;;;;;;;;;19.26;40.12;102249.66;5097299;28;1464;-55
2020/12/20 07:39:31;;;;;;;;;;;;;;;20.18;37.88;102256.22;5098990;28;803;-54
2020/12/20 07:41:56;;;;;;;;;;;;;;;20.77;36.77;102257.25;5098820;28;1897;-60
2020/12/20 07:44:31;;;;;;;;;;;;;;;20.36;37.47;102265.22;5108359;28;1122;-53
2020/12/20 07:46:56;;;;;;;;;;;;;;;20.00;38.27;102251.06;5119455;28;775;-56
2020/12/20 07:49:22;;;;;;;;;;;;;;;19.67;39.01;102252.91;5119465;28;743;-53
2020/12/20 07:51:47;;;;;;;;;;;;;;;19.44;39.62;102254.00;5101269;28;952;-54
2020/12/20 07:54:13;;;;;;;;;;;;;;;20.38;37.49;102253.91;5098541;28;767;-55
2020/12/20 07:56:39;;;;;;;;;;;;;;;20.53;37.37;102262.31;5099048;28;761;-52
2020/12/20 07:59:11;;;;;;;;;;;;;;;20.11;38.34;102261.13;5098626;28;791;-49
2020/12/20 08:01:37;;;;;;;;;;;;;;;19.95;38.41;102257.38;5098326;28;1906;-48
2020/12/20 08:04:04;;;;;;;;;;;;;;;19.39;39.64;102252.03;5098892;28;859;-49
2020/12/20 08:06:29;;;;;;;;;;;;;;;20.07;38.41;102254.44;5098364;28;965;-49
2020/12/20 08:09:00;;;;;;;;;;;;;;;20.76;36.80;102250.09;5098538;28;786;-49
2020/12/20 08:11:28;;;;;;;;;;;;;;;20.16;38.10;102265.84;5098663;28;751;-51
2020/12/20 08:14:04;;;;;;;;;;;;;;;20.05;38.11;102267.69;5098458;28;809;-59
2020/12/20 08:16:30;;;;;;;;;;;;;;;19.79;38.98;102269.31;5098376;28;818;-53
2020/12/20 08:19:05;;;;;;;;;;;;;;;19.50;39.48;102266.75;5098377;28;1540;-48
2020/12/20 08:21:33;;;;;;;;;;;;;;;20.42;37.69;102266.91;5097038;28;1933;-60
2020/12/20 08:23:59;;;;;;;;;;;;;;;20.14;37.99;102266.09;5096647;28;878;-50
2020/12/20 08:26:31;;;;;;;;;;;;;;;20.08;38.23;102267.16;5096760;28;883;-52
2020/12/20 08:28:57;;;;;;;;;;;;;;;19.70;39.12;102265.34;5098028;28;774;-55
2020/12/20 08:31:22;;;;;;;;;;;;;;;19.43;39.53;102260.63;5098147;28;858;-50
2020/12/20 08:33:48;;;;;;;;;;;;;;;19.78;39.10;102262.97;5098618;28;806;-54
2020/12/20 08:36:14;;;;;;;;;;;;;;;20.68;37.06;102264.41;5097937;28;1079;-53
2020/12/20 08:38:40;;;;;;;;;;;;;;;20.46;37.37;102257.00;5098285;28;763;-56
2020/12/20 08:41:17;;;;;;;;;;;;;;;20.18;38.00;102260.91;5097554;28;1902;-51
2020/12/20 08:43:42;;;;;;;;;;;;;;;19.76;38.76;102254.09;5093262;28;882;-52
2020/12/20 08:46:08;;;;;;;;;;;;;;;19.30;39.98;102256.31;5096038;28;848;-53
2020/12/20 08:48:33;;;;;;;;;;;;;;;19.74;39.11;102255.44;5096676;28;838;-54
2020/12/20 08:50:58;;;;;;;;;;;;;;;20.48;37.36;102253.97;5095778;28;925;-52
2020/12/20 08:53:24;;;;;;;;;;;;;;;20.18;38.21;102253.44;5097128;28;882;-53
2020/12/20 08:55:49;;;;;;;;;;;;;;;20.14;38.05;102246.78;5095556;28;847;-55
2020/12/20 08:58:15;;;;;;;;;;;;;;;19.73;38.81;102246.34;5096667;28;823;-53
2020/12/20 09:00:40;;;;;;;;;;;;;;;19.43;39.83;102244.06;5095546;28;1988;-55
2020/12/20 09:03:06;;;;;;;;;;;;;;;19.74;39.14;102242.50;5096657;28;830;-57
2020/12/20 09:05:33;;;;;;;;;;;;;;;20.59;37.32;102235.53;5096484;28;882;-51
2020/12/20 09:07:58;;;;;;;;;;;;;;;20.55;37.29;102237.16;5095033;28;828;-51
2020/12/20 09:10:25;;;;;;;;;;;;;;;20.05;38.19;102237.31;5096950;28;847;-53
2020/12/20 09:12:50;;;;;;;;;;;;;;;19.86;38.55;102236.84;5096183;28;815;-56
2020/12/20 09:15:17;;;;;;;;;;;;;;;19.48;39.56;102231.16;5096486;28;815;-51
2020/12/20 09:17:44;;;;;;;;;;;;;;;19.32;40.26;102232.06;5096279;28;997;-55
2020/12/20 09:20:10;;;;;;;;;;;;;;;20.61;37.86;102241.66;5096050;28;1905;-48
2020/12/20 09:22:36;;;;;;;;;;;;;;;21.51;36.17;102233.28;5094584;28;872;-54
2020/12/20 09:25:02;;;;;;;;;;;;;;;20.94;37.11;102231.38;5096621;28;834;-52
2020/12/20 09:27:27;;;;;;;;;;;;;;;20.57;37.78;102222.00;5096308;28;874;-47
2020/12/20 09:29:53;;;;;;;;;;;;;;;19.80;39.33;102224.94;5095860;28;1005;-50
2020/12/20 09:32:18;;;;;;;;;;;;;;;19.83;39.60;102226.34;5096191;28;877;-52
2020/12/20 09:34:44;;;;;;;;;;;;;;;20.59;37.77;102222.53;5095793;28;870;-48
2020/12/20 09:37:09;;;;;;;;;;;;;;;20.20;38.56;102224.75;5096377;28;827;-47
2020/12/20 09:39:53;;;;;;;;;;;;;;;20.14;38.65;102219.16;5095547;28;819;-52
2020/12/20 09:42:19;;;;;;;;;;;;;;;19.67;39.64;102217.88;5096072;28;1907;-48
2020/12/20 09:44:44;;;;;;;;;;;;;;;19.32;40.38;102223.78;5098204;28;863;-48
2020/12/20 09:47:10;;;;;;;;;;;;;;;20.33;38.43;102213.25;5095948;28;849;-50
2020/12/20 09:49:35;;;;;;;;;;;;;;;20.67;37.46;102212.94;5095806;28;816;-49
2020/12/20 09:52:02;;;;;;;;;;;;;;;20.34;38.15;102209.38;5095815;28;1001;-52
2020/12/20 09:54:28;;;;;;;;;;;;;;;19.91;39.14;102202.94;5096046;28;842;-48
2020/12/20 09:56:53;;;;;;;;;;;;;;;19.40;40.19;102201.28;5096492;28;878;-50
2020/12/20 09:59:19;;;;;;;;;;;;;;;19.73;39.73;102201.38;5096289;28;751;-47
2020/12/20 10:01:44;;;;;;;;;;;;;;;20.59;37.84;102199.63;5095684;28;1914;-50
2020/12/20 10:04:10;;;;;;;;;;;;;;;20.60;37.50;102193.00;5095723;28;878;-46
2020/12/20 10:06:35;;;;;;;;;;;;;;;20.08;38.68;102195.38;5095354;28;871;-48
2020/12/20 10:09:01;;;;;;;;;;;;;;;19.73;39.23;102202.19;5095102;28;879;-50
2020/12/20 10:11:26;;;;;;;;;;;;;;;19.26;40.54;102197.25;5095290;28;863;-47
2020/12/20 10:13:52;;;;;;;;;;;;;;;19.38;40.42;102189.69;5095795;28;889;-47
2020/12/20 10:16:18;;;;;;;;;;;;;;;20.41;38.11;102190.66;5095255;28;815;-45
2020/12/20 10:18:45;;;;;;;;;;;;;;;20.61;37.33;102195.50;5095615;28;1004;-46
2020/12/20 10:21:13;;;;;;;;;;;;;;;20.11;38.67;102186.56;5094971;28;1988;-46
2020/12/20 10:23:39;;;;;;;;;;;;;;;19.95;38.75;102182.84;5095069;28;867;-52
2020/12/20 10:26:07;;;;;;;;;;;;;;;19.53;39.83;102185.41;5095325;28;835;-46
2020/12/20 10:28:32;;;;;;;;;;;;;;;19.26;40.59;102183.47;5095149;28;866;-49
2020/12/20 10:30:58;;;;;;;;;;;;;;;20.31;38.06;102182.28;5095434;28;886;-48
2020/12/20 10:33:23;;;;;;;;;;;;;;;20.43;37.96;102173.81;5095615;28;1029;-48
2020/12/20 10:35:48;;;;;;;;;;;;;;;20.08;38.46;102177.97;5095041;28;990;-48
2020/12/20 10:38:14;;;;;;;;;;;;;;;20.04;38.49;102180.44;5095917;28;901;-46
2020/12/20 10:40:39;;;;;;;;;;;;;;;19.28;40.17;102170.25;5095291;28;1995;-52
2020/12/20 10:43:05;;;;;;;;;;;;;;;20.19;38.42;102174.22;5094456;28;811;-48
2020/12/20 10:45:30;;;;;;;;;;;;;;;20.54;37.37;102169.19;5103143;28;1094;-49
2020/12/20 10:47:55;;;;;;;;;;;;;;;20.10;38.49;102170.25;5099404;28;823;-48
2020/12/20 10:50:21;;;;;;;;;;;;;;;20.08;38.66;102158.66;5098775;28;863;-48
2020/12/20 10:52:46;;;;;;;;;;;;;;;19.55;39.34;102156.47;5099282;28;823;-47
2020/12/20 10:55:12;;;;;;;;;;;;;;;19.98;38.67;102156.63;5098878;28;863;-48
2020/12/20 10:57:37;;;;;;;;;;;;;;;20.72;37.32;102165.16;5098812;28;811;-47
2020/12/20 11:00:04;;;;;;;;;;;;;;;21.30;36.09;102159.63;5099305;28;1976;-51
2020/12/20 11:02:29;;;;;;;;;;;;;;;20.73;37.08;102153.03;5098012;28;1267;-50
2020/12/20 11:04:55;;;;;;;;;;;;;;;20.43;37.75;102158.06;5098515;28;827;-47
2020/12/20 11:07:20;;;;;;;;;;;;;;;20.07;38.63;102160.56;5099352;28;874;-47
2020/12/20 11:09:46;;;;;;;;;;;;;;;19.54;39.84;102159.50;5098903;28;827;-48
2020/12/20 11:12:11;;;;;;;;;;;;;;;19.43;39.98;102161.31;5097266;28;820;-57
2020/12/20 11:14:37;;;;;;;;;;;;;;;20.57;37.68;102160.38;5098815;28;867;-47
2020/12/20 11:17:02;;;;;;;;;;;;;;;20.57;37.47;102157.63;5099426;28;819;-48
2020/12/20 11:19:28;;;;;;;;;;;;;;;20.32;38.04;102156.34;5098563;28;1114;-54
2020/12/20 11:21:53;;;;;;;;;;;;;;;19.87;38.79;102160.41;5098242;28;1973;-48
2020/12/20 11:24:19;;;;;;;;;;;;;;;19.35;40.20;102159.00;5098378;28;855;-47
2020/12/20 11:26:44;;;;;;;;;;;;;;;20.37;37.95;102158.28;5098446;28;905;-49
2020/12/20 11:29:10;;;;;;;;;;;;;;;20.65;37.32;102159.84;5098955;28;866;-48
2020/12/20 11:31:35;;;;;;;;;;;;;;;20.19;38.21;102157.63;5098303;28;902;-46
2020/12/20 11:34:01;;;;;;;;;;;;;;;19.96;38.65;102154.16;5098727;28;820;-51
2020/12/20 11:36:26;;;;;;;;;;;;;;;19.59;39.46;102156.81;5098336;28;886;-46
2020/12/20 11:38:52;;;;;;;;;;;;;;;19.30;40.27;102168.88;5098140;28;819;-47
2020/12/20 11:41:21;;;;;;;;;;;;;;;20.16;38.51;102156.22;5098347;28;1910;-47
2020/12/20 11:43:46;;;;;;;;;;;;;;;20.91;37.05;102162.78;5099467;28;831;-52
2020/12/20 11:46:11;;;;;;;;;;;;;;;20.31;38.14;102157.44;5098105;28;886;-47
2020/12/20 11:48:37;;;;;;;;;;;;;;;20.24;38.25;102165.13;5098052;28;871;-47
2020/12/20 11:51:03;;;;;;;;;;;;;;;19.84;38.95;102161.75;5097999;28;830;-47
2020/12/20 11:53:28;;;;;;;;;;;;;;;19.67;39.41;102156.34;5098011;28;827;-48
2020/12/20 11:55:53;;;;;;;;;;;;;;;20.52;37.68;102164.78;5089914;28;870;-49
2020/12/20 11:58:19;;;;;;;;;;;;;;;20.85;37.03;102170.22;5098970;28;783;-49
2020/12/20 12:00:44;;;;;;;;;;;;;;;20.37;37.78;102163.81;5098729;28;1910;-48
2020/12/20 12:03:10;;;;;;;;;;;;;;;20.10;38.49;102170.25;5094243;28;1021;-49
2020/12/20 12:05:36;;;;;;;;;;;;;;;19.69;39.13;102167.94;5097085;28;831;-51
2020/12/20 12:08:01;;;;;;;;;;;;;;;19.53;39.81;102168.84;5097763;28;875;-47
2020/12/20 12:10:27;;;;;;;;;;;;;;;20.43;37.87;102169.13;5097591;28;831;-46
2020/12/20 12:12:52;;;;;;;;;;;;;;;20.75;37.03;102171.00;5097257;28;823;-46
2020/12/20 12:15:18;;;;;;;;;;;;;;;20.29;37.88;102168.75;5097621;28;901;-47
2020/12/20 12:17:44;;;;;;;;;;;;;;;20.13;38.24;102175.25;5097593;28;871;-45
2020/12/20 12:20:10;;;;;;;;;;;;;;;19.64;39.45;102177.00;5096808;28;1910;-46
2020/12/20 12:22:35;;;;;;;;;;;;;;;19.29;40.70;102180.19;5097750;28;952;-50
2020/12/20 12:25:00;;;;;;;;;;;;;;;19.44;40.50;102176.78;5097576;28;870;-49
2020/12/20 12:27:26;;;;;;;;;;;;;;;19.35;40.87;102181.94;5097586;28;835;-51
2020/12/20 12:29:51;;;;;;;;;;;;;;;19.31;41.07;102183.53;5097980;28;874;-52
2020/12/20 12:32:17;;;;;;;;;;;;;;;19.41;40.79;102186.41;5097934;28;882;-50
2020/12/20 12:34:42;;;;;;;;;;;;;;;20.35;38.69;102183.44;5096963;28;885;-48
2020/12/20 12:37:07;;;;;;;;;;;;;;;20.73;37.77;102178.72;5096884;28;945;-45
2020/12/20 12:39:33;;;;;;;;;;;;;;;20.16;39.15;102181.09;5097370;28;899;-45
2020/12/20 12:42:02;;;;;;;;;;;;;;;20.25;38.82;102189.72;5097070;28;1975;-48
2020/12/20 12:44:27;;;;;;;;;;;;;;;19.46;40.39;102194.75;5104034;28;911;-47
2020/12/20 12:46:53;;;;;;;;;;;;;;;20.17;39.03;102196.56;5097358;28;882;-48
2020/12/20 12:49:18;;;;;;;;;;;;;;;20.87;37.46;102183.78;5096461;28;858;-45
2020/12/20 12:51:44;;;;;;;;;;;;;;;20.35;38.44;102191.72;5096933;28;965;-53
2020/12/20 12:54:09;;;;;;;;;;;;;;;20.12;38.79;102201.22;5096846;28;990;-48
2020/12/20 12:56:34;;;;;;;;;;;;;;;19.77;39.67;102195.06;5096719;28;879;-47
2020/12/20 12:59:00;;;;;;;;;;;;;;;19.69;39.86;102201.03;5096796;28;871;-47